ホノルル の空港の天気 - METARとTAF

ホノルル国際空港 ( PHNL / HNL ) - アメリカ ハワイ州ホノルル
飛行場実況気象(Metar)
観測時間11/17 09:53 HST (11/17 19:53 UTC)
風向・風速北北東 5m/s
視程10km以上
天気現象
少しの雲 雲底高度 790m
全天の4割程度の雲 雲底高度 1130m
全天の8割程度の雲 雲底高度 2440m
気温25.6℃
湿度69%
気圧1018hPa
METARPHNL 171953Z 03009KT 10SM FEW026 SCT037 BKN080 26/19 A3006 RMK AO2 SLP180 VCSH N-E-SE T02560194 $
過去の天気等 Google飛行場航空写真 Wunderground天気予報

過去48時間のMETAR

飛行場予報(TAF)
発表時間: 11/17 07:38 HST (11/17 17:38 UTC)
予報対象時間: 17日8時 HST ~ 18日14時 HST
風向・風速北東 3m/s
視程10km以上
天気現象周辺でしゅう雨
全天の4割程度の雲 雲底高度 760m
全天の8割程度の雲 雲底高度 1520m
17日11時 HST から
風向・風速北東 8m/s 瞬間風速 12m/s
視程10km以上
天気現象周辺でしゅう雨
少しの雲 雲底高度 910m
全天の8割程度の雲 雲底高度 1520m
17日20時 HST から
風向・風速北東 6m/s
視程10km以上
少しの雲 雲底高度 760m
全天の4割程度の雲 雲底高度 1370m
18日11時 HST から
風向・風速北東 7m/s 瞬間風速 11m/s
視程10km以上
少しの雲 雲底高度 760m
全天の4割程度の雲 雲底高度 1520m
PHNL 171738Z 1718/1824 04005KT P6SM VCSH SCT025 BKN050
FM172100 05015G24KT P6SM VCSH FEW030 BKN050
FM180600 04011KT P6SM FEW025 SCT045
FM182100 05013G22KT P6SM FEW025 SCT050